Time;durP1;ratioP1;P1;durP2;ratioP2;P2;SDS_P1;SDS_P2;PMS_P1;PMS_P2;Temp;Humidity;BMP_temperature;BMP_pressure;BME280_temperature;BME280_humidity;BME280_pressure;Samples;Min_cycle;Max_cycle;Signal;HPM_P1;HPM_P2
2020/12/14 00:00:09;;;;;;;7.40;2.73;;;6.90;99.90;;;;;;5034153;28;20769;-88
2020/12/14 00:02:35;;;;;;;4.00;2.17;;;6.90;99.90;;;;;;5014724;28;20437;-87
2020/12/14 00:05:02;;;;;;;6.67;2.13;;;6.90;99.90;;;;;;5030985;28;20453;-87
2020/12/14 00:07:28;;;;;;;5.47;2.77;;;6.90;99.90;;;;;;5034340;28;20431;-86
2020/12/14 00:09:55;;;;;;;6.27;2.10;;;6.90;99.90;;;;;;5034249;28;20455;-86
2020/12/14 00:12:22;;;;;;;3.07;1.90;;;6.90;99.90;;;;;;5034226;28;20445;-84
2020/12/14 00:14:48;;;;;;;6.40;2.03;;;6.90;99.90;;;;;;5034111;28;20498;-84
2020/12/14 00:17:18;;;;;;;10.07;2.70;;;7.00;99.90;;;;;;5034393;28;20528;-85
2020/12/14 00:19:45;;;;;;;6.63;2.10;;;7.10;99.90;;;;;;5034084;28;20527;-85
2020/12/14 00:22:11;;;;;;;5.90;1.90;;;7.10;99.90;;;;;;5033356;28;20440;-86
2020/12/14 00:24:38;;;;;;;5.17;1.90;;;7.20;99.90;;;;;;5033764;28;20935;-86
2020/12/14 00:27:04;;;;;;;3.90;1.90;;;7.20;99.90;;;;;;5033571;28;20457;-84
2020/12/14 00:29:32;;;;;;;3.33;1.83;;;7.30;99.90;;;;;;5027020;28;20791;-84
2020/12/14 00:31:58;;;;;;;7.33;2.60;;;7.40;99.90;;;;;;5014379;28;20450;-84
2020/12/14 00:34:25;;;;;;;6.03;1.80;;;7.30;99.90;;;;;;5014521;28;20488;-85
2020/12/14 00:36:51;;;;;;;7.40;2.57;;;7.40;99.90;;;;;;5014613;28;20509;-84
2020/12/14 00:39:18;;;;;;;3.60;1.73;;;7.50;99.90;;;;;;5013886;28;20532;-84
2020/12/14 00:41:44;;;;;;;3.37;1.77;;;7.50;99.90;;;;;;5030121;28;20453;-86
2020/12/14 00:44:10;;;;;;;7.43;3.60;;;7.50;99.90;;;;;;5036978;28;20930;-92
2020/12/14 00:46:37;;;;;;;4.00;1.70;;;7.60;99.90;;;;;;5037380;28;20477;-85
2020/12/14 00:49:04;;;;;;;5.30;1.57;;;7.60;99.90;;;;;;5035162;28;20444;-85
2020/12/14 00:51:31;;;;;;;5.27;1.60;;;7.60;99.90;;;;;;5036729;28;20457;-85
2020/12/14 00:53:58;;;;;;;3.30;1.40;;;7.60;99.90;;;;;;5037618;28;20584;-85
2020/12/14 00:56:24;;;;;;;4.47;2.10;;;7.70;99.90;;;;;;5034609;28;20909;-85
2020/12/14 00:58:51;;;;;;;6.97;2.07;;;7.70;99.90;;;;;;5018135;28;20467;-85
2020/12/14 01:01:19;;;;;;;7.37;2.13;;;7.60;99.90;;;;;;5025009;28;20526;-85
2020/12/14 01:03:47;;;;;;;9.63;2.87;;;7.60;99.90;;;;;;5018871;28;20933;-85
2020/12/14 01:06:14;;;;;;;4.40;1.83;;;7.60;99.90;;;;;;5036984;28;20444;-86
2020/12/14 01:08:41;;;;;;;6.17;2.40;;;7.60;99.90;;;;;;5024662;28;20458;-85
2020/12/14 01:11:08;;;;;;;8.73;1.70;;;7.60;99.90;;;;;;5032991;28;20448;-85
2020/12/14 01:13:35;;;;;;;5.23;2.00;;;7.60;99.90;;;;;;5036357;28;20771;-85
2020/12/14 01:16:01;;;;;;;4.00;1.43;;;7.60;99.90;;;;;;5036352;28;20983;-86
2020/12/14 01:18:28;;;;;;;4.10;2.07;;;7.60;99.90;;;;;;5036207;28;20480;-85
2020/12/14 01:20:55;;;;;;;3.27;1.70;;;7.70;99.90;;;;;;5036991;28;20441;-85
2020/12/14 01:23:22;;;;;;;5.30;1.70;;;7.70;99.90;;;;;;5036014;28;20453;-86
2020/12/14 01:25:48;;;;;;;7.40;2.00;;;7.60;99.90;;;;;;5037022;28;20540;-85
2020/12/14 01:28:14;;;;;;;8.83;1.97;;;7.70;99.90;;;;;;5029620;28;20556;-86
2020/12/14 01:30:41;;;;;;;3.50;1.80;;;7.70;99.90;;;;;;5036686;28;20775;-85
2020/12/14 01:33:07;;;;;;;5.57;2.20;;;7.70;99.90;;;;;;5036812;28;20544;-85
2020/12/14 01:35:33;;;;;;;5.20;1.37;;;7.70;99.90;;;;;;5036358;28;20502;-85
2020/12/14 01:38:00;;;;;;;4.40;1.60;;;7.60;99.90;;;;;;5036518;28;20449;-85
2020/12/14 01:40:27;;;;;;;3.60;1.60;;;7.70;99.90;;;;;;5036507;28;20445;-85
2020/12/14 01:42:53;;;;;;;8.83;1.93;;;7.60;99.90;;;;;;5031081;28;20456;-86
2020/12/14 01:45:20;;;;;;;4.43;2.50;;;7.70;99.90;;;;;;5016966;28;20454;-85
2020/12/14 01:47:49;;;;;;;5.10;1.80;;;7.60;99.90;;;;;;5032487;28;20481;-85
2020/12/14 01:50:17;;;;;;;6.97;1.70;;;7.50;99.90;;;;;;5036806;28;20444;-86
2020/12/14 01:52:45;;;;;;;5.67;1.90;;;7.50;99.90;;;;;;5034515;28;20483;-86
2020/12/14 01:55:18;;;;;;;5.13;1.57;;;7.50;99.90;;;;;;5036460;28;20476;-85
2020/12/14 01:57:45;;;;;;;8.87;2.07;;;7.50;99.90;;;;;;5036245;28;20545;-85
2020/12/14 02:00:12;;;;;;;3.20;1.53;;;7.60;99.90;;;;;;5036264;28;20449;-85
2020/12/14 02:02:38;;;;;;;4.83;2.00;;;7.50;99.90;;;;;;5035827;28;20449;-85
2020/12/14 02:05:06;;;;;;;3.90;1.70;;;7.60;99.90;;;;;;5036054;28;20514;-84
2020/12/14 02:07:33;;;;;;;5.40;1.83;;;7.60;99.90;;;;;;5024775;28;20549;-85
2020/12/14 02:09:59;;;;;;;4.50;1.60;;;7.50;99.90;;;;;;5031006;28;20441;-83
2020/12/14 02:12:28;;;;;;;4.63;2.10;;;7.40;99.90;;;;;;5035428;28;20535;-84
2020/12/14 02:14:56;;;;;;;2.87;1.20;;;7.50;99.90;;;;;;5036575;28;20480;-84
2020/12/14 02:17:24;;;;;;;3.53;1.43;;;7.50;99.90;;;;;;5036139;28;20437;-84
2020/12/14 02:19:51;;;;;;;7.37;2.00;;;7.50;99.90;;;;;;5036547;28;20448;-85
2020/12/14 02:22:18;;;;;;;3.73;1.57;;;7.40;99.90;;;;;;5035986;28;20445;-84
2020/12/14 02:24:52;;;;;;;3.77;1.80;;;7.30;99.90;;;;;;5036337;28;20488;-84
2020/12/14 02:27:19;;;;;;;5.33;1.53;;;7.30;99.90;;;;;;5035040;28;20448;-86
2020/12/14 02:29:47;;;;;;;4.03;2.10;;;7.20;99.90;;;;;;5022420;28;20452;-84
2020/12/14 02:32:18;;;;;;;5.33;2.27;;;7.20;99.90;;;;;;5016623;28;20450;-85
2020/12/14 02:34:45;;;;;;;2.90;1.30;;;7.10;99.90;;;;;;5017437;28;20479;-85
2020/12/14 02:37:14;;;;;;;3.00;1.27;;;7.10;99.90;;;;;;5018571;28;20446;-84
2020/12/14 02:39:40;;;;;;;4.43;1.57;;;7.20;99.90;;;;;;5016605;28;20772;-85
2020/12/14 02:42:09;;;;;;;3.70;1.60;;;7.20;99.90;;;;;;5016700;28;20619;-85
2020/12/14 02:44:35;;;;;;;4.70;1.60;;;7.20;99.90;;;;;;5016175;28;21087;-85
2020/12/14 02:47:02;;;;;;;6.57;1.67;;;7.20;99.90;;;;;;5015997;28;20967;-84
2020/12/14 02:49:28;;;;;;;3.53;1.50;;;7.20;99.90;;;;;;5015863;28;20917;-84
2020/12/14 02:51:55;;;;;;;4.30;2.47;;;7.10;99.90;;;;;;5015375;28;20454;-85
2020/12/14 02:54:21;;;;;;;5.63;1.90;;;7.10;99.90;;;;;;5015658;28;20494;-86
2020/12/14 02:56:47;;;;;;;6.50;1.60;;;7.10;99.90;;;;;;5020934;28;20451;-85
2020/12/14 02:59:15;;;;;;;4.23;1.20;;;7.10;99.90;;;;;;5035349;28;20461;-85
2020/12/14 03:01:41;;;;;;;6.00;1.43;;;7.10;99.90;;;;;;5035422;28;20475;-85
2020/12/14 03:04:08;;;;;;;3.13;1.37;;;7.10;99.90;;;;;;5034801;28;20543;-84
2020/12/14 03:06:34;;;;;;;3.20;1.83;;;7.10;99.90;;;;;;5035446;28;20917;-85
2020/12/14 03:09:02;;;;;;;2.77;1.40;;;7.20;99.90;;;;;;5035200;28;20547;-85
2020/12/14 03:11:29;;;;;;;4.57;1.50;;;7.20;99.90;;;;;;5035351;28;20771;-85
2020/12/14 03:13:55;;;;;;;5.27;1.70;;;7.30;99.90;;;;;;5034696;28;20447;-86
2020/12/14 03:16:22;;;;;;;4.13;1.90;;;7.30;99.90;;;;;;5034260;28;20441;-85
2020/12/14 03:18:49;;;;;;;6.60;2.50;;;7.40;99.90;;;;;;5035241;28;20900;-84
2020/12/14 03:21:15;;;;;;;5.20;1.60;;;7.40;99.90;;;;;;5035156;28;20893;-84
2020/12/14 03:23:41;;;;;;;6.43;2.37;;;7.50;99.90;;;;;;5034213;28;20559;-85
2020/12/14 03:26:08;;;;;;;3.53;1.30;;;7.60;99.90;;;;;;5034242;28;20463;-85
2020/12/14 03:28:34;;;;;;;3.60;1.53;;;7.60;99.90;;;;;;5034597;28;20905;-85
2020/12/14 03:31:00;;;;;;;4.70;1.90;;;7.60;99.90;;;;;;5034700;28;20455;-84
2020/12/14 03:33:27;;;;;;;3.40;1.27;;;7.60;99.90;;;;;;5034681;28;20442;-85
2020/12/14 03:35:54;;;;;;;5.20;1.40;;;7.70;99.90;;;;;;5034739;28;20488;-85
2020/12/14 03:38:20;;;;;;;2.50;1.00;;;7.70;99.90;;;;;;5035162;28;20453;-85
2020/12/14 03:40:46;;;;;;;6.70;1.77;;;7.70;99.90;;;;;;5035306;28;20504;-85
2020/12/14 03:43:13;;;;;;;4.37;1.47;;;7.70;99.90;;;;;;5034592;28;20511;-85
2020/12/14 03:45:39;;;;;;;3.80;1.63;;;7.70;99.90;;;;;;5034598;28;20457;-84
2020/12/14 03:48:05;;;;;;;3.90;1.53;;;7.70;99.90;;;;;;5034774;28;20460;-85
2020/12/14 03:50:33;;;;;;;4.17;1.60;;;7.70;99.90;;;;;;5034113;28;20445;-85
2020/12/14 03:52:59;;;;;;;5.30;1.40;;;7.80;99.90;;;;;;5034386;28;20867;-84
2020/12/14 03:55:25;;;;;;;4.73;1.93;;;7.80;99.90;;;;;;5033866;28;20480;-85
2020/12/14 03:57:52;;;;;;;4.23;1.70;;;7.80;99.90;;;;;;5034321;28;20452;-84
2020/12/14 04:00:21;;;;;;;3.77;1.43;;;7.80;99.90;;;;;;5034888;28;20445;-85
2020/12/14 04:02:47;;;;;;;5.40;1.57;;;7.80;99.90;;;;;;5033935;28;20460;-83
2020/12/14 04:05:13;;;;;;;3.23;1.20;;;7.90;99.90;;;;;;5034568;28;20451;-84
2020/12/14 04:07:41;;;;;;;10.13;1.93;;;7.90;99.90;;;;;;5034276;28;20834;-85
2020/12/14 04:10:07;;;;;;;5.13;1.30;;;7.90;99.90;;;;;;5033711;28;20451;-85
2020/12/14 04:12:33;;;;;;;3.83;1.30;;;7.90;99.90;;;;;;5034273;28;20469;-84
2020/12/14 04:15:00;;;;;;;7.70;1.40;;;7.90;99.90;;;;;;5034323;28;20473;-85
2020/12/14 04:17:26;;;;;;;3.77;1.90;;;8.00;99.90;;;;;;5037925;28;20445;-85
2020/12/14 04:19:52;;;;;;;6.97;1.60;;;8.00;99.90;;;;;;5037997;28;20456;-88
2020/12/14 04:22:22;;;;;;;3.80;2.00;;;8.00;99.90;;;;;;5038023;28;20543;-86
2020/12/14 04:24:49;;;;;;;6.80;1.97;;;8.10;99.90;;;;;;5038295;28;20748;-84
2020/12/14 04:27:15;;;;;;;2.70;1.60;;;8.10;99.90;;;;;;5039119;28;20445;-84
2020/12/14 04:29:41;;;;;;;3.30;1.43;;;8.10;99.90;;;;;;5038405;28;20445;-84
2020/12/14 04:32:08;;;;;;;4.57;1.50;;;8.10;99.90;;;;;;5038661;28;20425;-84
2020/12/14 04:34:34;;;;;;;3.17;1.40;;;8.10;99.90;;;;;;5038229;28;20514;-84
2020/12/14 04:37:00;;;;;;;4.93;1.47;;;8.10;99.90;;;;;;5038297;28;20885;-84
2020/12/14 04:39:53;;;;;;;4.17;1.87;;;8.10;99.90;;;;;;5037698;28;20456;-85
2020/12/14 04:42:22;;;;;;;2.60;1.40;;;8.10;99.90;;;;;;5037877;28;20441;-85
2020/12/14 04:44:48;;;;;;;3.10;1.27;;;8.10;99.90;;;;;;5037329;28;20939;-85
2020/12/14 04:47:14;;;;;;;2.53;1.70;;;8.20;99.90;;;;;;5037298;28;20767;-84
2020/12/14 04:49:41;;;;;;;3.70;1.60;;;8.20;99.90;;;;;;5036460;28;22560;-84
2020/12/14 04:52:08;;;;;;;2.70;1.60;;;8.20;99.90;;;;;;5036839;28;20556;-84
2020/12/14 04:54:34;;;;;;;4.20;1.60;;;8.20;99.90;;;;;;5036747;28;20507;-84
2020/12/14 04:57:06;;;;;;;3.40;1.33;;;8.30;99.90;;;;;;5037342;28;20548;-85
2020/12/14 04:59:32;;;;;;;5.23;1.73;;;8.30;99.90;;;;;;5036807;28;20534;-85
2020/12/14 05:02:07;;;;;;;4.33;1.50;;;8.20;99.90;;;;;;5037671;28;20528;-84
2020/12/14 05:04:34;;;;;;;4.37;1.77;;;8.20;99.90;;;;;;5037119;28;20807;-85
2020/12/14 05:07:00;;;;;;;5.10;2.00;;;8.20;99.90;;;;;;5037783;28;20470;-84
2020/12/14 05:09:27;;;;;;;3.43;1.63;;;8.30;99.90;;;;;;5036705;28;20460;-85
2020/12/14 05:11:53;;;;;;;5.00;1.90;;;8.40;99.90;;;;;;5037592;28;20543;-84
2020/12/14 05:14:22;;;;;;;3.10;1.30;;;8.30;99.90;;;;;;5036985;28;20448;-85
2020/12/14 05:16:49;;;;;;;3.10;1.00;;;8.30;99.90;;;;;;5036914;28;20495;-84
2020/12/14 05:19:24;;;;;;;4.33;1.50;;;8.30;99.90;;;;;;5037114;28;20532;-85
2020/12/14 05:21:53;;;;;;;2.80;1.13;;;8.20;99.90;;;;;;5037129;28;20441;-85
2020/12/14 05:24:24;;;;;;;2.57;1.50;;;8.30;99.90;;;;;;5036620;28;20544;-86
2020/12/14 05:26:51;;;;;;;3.50;1.30;;;8.20;99.90;;;;;;5036445;28;20442;-86
2020/12/14 05:29:21;;;;;;;4.20;1.70;;;8.20;99.90;;;;;;5036796;28;20476;-83
2020/12/14 05:32:01;;;;;;;2.20;1.10;;;8.20;99.90;;;;;;5036274;28;20449;-85
2020/12/14 05:34:31;;;;;;;4.60;1.80;;;8.10;99.90;;;;;;5036582;28;20481;-84
2020/12/14 05:36:58;;;;;;;4.33;1.67;;;8.00;99.90;;;;;;5036517;28;20540;-85
2020/12/14 05:39:26;;;;;;;2.73;1.50;;;8.00;99.90;;;;;;5036349;28;20486;-85
2020/12/14 05:41:52;;;;;;;4.70;1.40;;;8.00;99.90;;;;;;5036357;28;20947;-85
2020/12/14 05:44:28;;;;;;;6.30;1.40;;;8.00;99.90;;;;;;5035801;28;20453;-85
2020/12/14 05:46:55;;;;;;;3.77;1.30;;;7.90;99.90;;;;;;5036211;28;21022;-86
2020/12/14 05:49:21;;;;;;;3.80;1.50;;;7.90;99.90;;;;;;5035935;28;20453;-86
2020/12/14 05:51:47;;;;;;;3.63;1.37;;;7.90;99.90;;;;;;5035951;28;20449;-85
2020/12/14 05:54:19;;;;;;;5.30;1.90;;;7.80;99.90;;;;;;5036008;28;20475;-84
2020/12/14 05:56:48;;;;;;;2.93;1.60;;;7.80;99.90;;;;;;5036805;28;20448;-87
2020/12/14 05:59:18;;;;;;;5.50;2.00;;;7.80;99.90;;;;;;5037313;28;20508;-84
2020/12/14 06:01:47;;;;;;;5.20;1.90;;;7.80;99.90;;;;;;5033788;28;20459;-86
2020/12/14 06:04:15;;;;;;;2.83;1.43;;;7.90;99.90;;;;;;5033685;28;20445;-84
2020/12/14 06:06:47;;;;;;;3.83;1.60;;;7.90;99.90;;;;;;5035141;28;20449;-84
2020/12/14 06:12:13;;;;;;;3.00;1.80;;;8.00;99.90;;;;;;5020923;28;20553;-88
2020/12/14 06:14:40;;;;;;;3.60;1.33;;;8.10;99.90;;;;;;5027638;28;20560;-84
2020/12/14 06:17:11;;;;;;;4.10;1.23;;;8.10;99.90;;;;;;5035845;28;20484;-85
2020/12/14 06:19:38;;;;;;;4.50;1.67;;;8.20;99.90;;;;;;5035756;28;20763;-84
2020/12/14 06:22:09;;;;;;;8.63;1.73;;;8.20;99.90;;;;;;5035828;28;20445;-84
2020/12/14 06:24:39;;;;;;;4.77;1.73;;;8.20;99.90;;;;;;5035596;28;20433;-84
2020/12/14 06:27:09;;;;;;;2.57;1.60;;;8.20;99.90;;;;;;5035838;28;20520;-84
2020/12/14 06:29:37;;;;;;;4.20;1.80;;;8.30;99.90;;;;;;5034915;28;20748;-85
2020/12/14 06:32:24;;;;;;;3.60;1.80;;;8.30;99.90;;;;;;5033449;28;20540;-85
2020/12/14 06:34:51;;;;;;;3.20;1.30;;;8.30;99.90;;;;;;5034553;28;20559;-84
2020/12/14 06:37:22;;;;;;;4.40;1.10;;;8.30;99.90;;;;;;5035152;28;20445;-85
2020/12/14 06:39:57;;;;;;;5.80;1.60;;;8.30;99.90;;;;;;5035217;28;20909;-84
2020/12/14 06:42:24;;;;;;;4.00;1.77;;;8.30;99.90;;;;;;5034919;28;20440;-84
2020/12/14 06:45:11;;;;;;;3.40;1.40;;;8.20;99.90;;;;;;5034294;28;20816;-86
2020/12/14 06:47:45;;;;;;;4.30;1.90;;;8.20;99.90;;;;;;5033365;28;20469;-85
2020/12/14 06:50:31;;;;;;;2.10;1.20;;;8.20;99.90;;;;;;5020856;28;20756;-83
2020/12/14 06:53:00;;;;;;;4.10;1.40;;;8.30;99.90;;;;;;5015878;28;20449;-83
2020/12/14 06:55:46;;;;;;;3.40;1.30;;;8.30;99.90;;;;;;5015287;28;20564;-84
2020/12/14 06:58:31;;;;;;;3.33;1.40;;;8.30;99.90;;;;;;5015751;28;20436;-84
2020/12/14 07:00:57;;;;;;;4.75;1.90;;;8.40;99.90;;;;;;5028785;28;20451;-84
2020/12/14 07:03:31;;;;;;;2.50;1.40;;;8.40;99.90;;;;;;5034683;28;20525;-84
2020/12/14 07:06:02;;;;;;;2.93;1.73;;;8.50;99.90;;;;;;5014804;28;20464;-84
2020/12/14 07:08:36;;;;;;;5.13;1.40;;;8.50;99.90;;;;;;5030756;28;20792;-85
2020/12/14 07:11:13;;;;;;;4.87;1.80;;;8.50;99.90;;;;;;5035020;28;20437;-84
2020/12/14 07:13:39;;;;;;;6.33;1.70;;;8.50;99.90;;;;;;5025417;28;20525;-85
2020/12/14 07:16:07;;;;;;;3.47;1.97;;;8.50;99.90;;;;;;5033629;28;20487;-84
2020/12/14 07:18:34;;;;;;;3.50;1.50;;;8.40;99.90;;;;;;5033212;28;20992;-86
2020/12/14 07:21:07;;;;;;;3.83;1.70;;;8.40;99.90;;;;;;5033869;28;20461;-85
2020/12/14 07:23:35;;;;;;;244.60;92.43;;;8.40;99.90;;;;;;5033519;28;20441;-85
2020/12/14 07:26:02;;;;;;;120.70;13.23;;;8.40;99.90;;;;;;5033997;28;20445;-84
2020/12/14 07:28:42;;;;;;;3.60;1.70;;;8.30;99.90;;;;;;5033438;28;20962;-83
2020/12/14 07:31:14;;;;;;;5.17;1.87;;;8.40;99.90;;;;;;5024802;28;20458;-84
2020/12/14 07:33:50;;;;;;;3.87;1.53;;;8.40;99.90;;;;;;5033182;28;20528;-85
2020/12/14 07:36:17;;;;;;;7.70;1.57;;;8.50;99.90;;;;;;5033948;28;20498;-85
2020/12/14 07:38:45;;;;;;;2.80;1.40;;;8.50;99.90;;;;;;5033277;28;20528;-85
2020/12/14 07:41:12;;;;;;;2.97;1.30;;;8.50;99.90;;;;;;5034226;28;20449;-84
2020/12/14 07:43:49;;;;;;;7.77;2.17;;;8.60;99.90;;;;;;5034168;28;20477;-85
2020/12/14 07:46:27;;;;;;;4.30;1.23;;;8.60;99.90;;;;;;5033451;28;20547;-84
2020/12/14 07:49:08;;;;;;;4.13;1.60;;;8.60;99.90;;;;;;5030838;28;20445;-85
2020/12/14 07:51:37;;;;;;;5.47;2.03;;;8.70;99.90;;;;;;5030751;28;20524;-85
2020/12/14 07:54:14;;;;;;;4.00;1.60;;;8.70;99.90;;;;;;5029033;28;20500;-85
2020/12/14 07:56:52;;;;;;;2.40;1.33;;;8.80;99.90;;;;;;5013750;28;20485;-85
2020/12/14 07:59:24;;;;;;;4.30;1.73;;;8.80;99.90;;;;;;5013928;28;20442;-86
2020/12/14 08:01:51;;;;;;;6.63;1.70;;;8.70;99.90;;;;;;5017529;28;20453;-87
2020/12/14 08:04:32;;;;;;;2.20;1.37;;;8.80;99.90;;;;;;5023925;28;20537;-87
2020/12/14 08:07:00;;;;;;;2.90;1.60;;;8.80;99.90;;;;;;5030250;28;20453;-86
2020/12/14 08:09:30;;;;;;;2.00;1.17;;;8.80;99.90;;;;;;5028435;28;20468;-87
2020/12/14 08:11:58;;;;;;;4.80;2.07;;;8.70;99.90;;;;;;5022874;28;20520;-86
2020/12/14 08:14:26;;;;;;;3.30;1.83;;;8.70;99.90;;;;;;5024682;28;20541;-86
2020/12/14 08:16:53;;;;;;;4.80;2.00;;;8.70;99.90;;;;;;5019346;28;20564;-87
2020/12/14 08:19:21;;;;;;;5.70;2.00;;;8.60;99.90;;;;;;5025565;28;20481;-87
2020/12/14 08:22:07;;;;;;;5.20;1.80;;;8.60;99.90;;;;;;5024636;28;20481;-86
2020/12/14 08:24:34;;;;;;;4.43;1.80;;;8.60;99.90;;;;;;5027481;28;20441;-88
2020/12/14 08:27:02;;;;;;;3.30;1.50;;;8.60;99.90;;;;;;5023751;28;20797;-86
2020/12/14 08:29:36;;;;;;;4.50;1.77;;;8.60;99.90;;;;;;5022805;28;20464;-86
2020/12/14 08:32:03;;;;;;;4.17;1.90;;;8.60;99.90;;;;;;5026379;28;20455;-87
2020/12/14 08:34:31;;;;;;;5.00;2.23;;;8.50;99.90;;;;;;5025193;28;20449;-87
2020/12/14 08:36:58;;;;;;;8.37;2.27;;;8.50;99.90;;;;;;5019036;28;20524;-86
2020/12/14 08:39:26;;;;;;;4.50;2.80;;;8.40;99.90;;;;;;5032710;28;20457;-88
2020/12/14 08:42:11;;;;;;;3.80;2.57;;;8.30;99.90;;;;;;5033328;28;20527;-88
2020/12/14 08:44:39;;;;;;;4.47;2.23;;;8.30;99.90;;;;;;5032857;28;20994;-91
2020/12/14 08:47:13;;;;;;;4.33;2.37;;;8.20;99.90;;;;;;5025600;28;20521;-89
2020/12/14 08:49:39;;;;;;;4.37;2.03;;;8.30;99.90;;;;;;5019641;28;20486;-88
2020/12/14 08:52:08;;;;;;;3.73;2.40;;;8.20;99.90;;;;;;5026874;28;20493;-87
2020/12/14 08:54:38;;;;;;;6.10;2.27;;;8.20;99.90;;;;;;5029703;28;20499;-89
2020/12/14 08:57:04;;;;;;;4.70;2.10;;;8.20;99.90;;;;;;5033466;28;20543;-88
2020/12/14 08:59:35;;;;;;;8.10;3.00;;;8.20;99.90;;;;;;5034182;28;20909;-88
2020/12/14 09:02:21;;;;;;;4.53;2.30;;;8.30;99.90;;;;;;5035723;28;20479;-90
2020/12/14 09:04:53;;;;;;;3.80;2.00;;;8.30;99.90;;;;;;5024027;28;20480;-89
2020/12/14 09:07:31;;;;;;;5.03;2.30;;;8.30;99.90;;;;;;5035275;28;20463;-88
2020/12/14 09:09:58;;;;;;;5.23;2.53;;;8.40;99.90;;;;;;5031320;28;20563;-90
2020/12/14 09:12:28;;;;;;;6.03;2.40;;;8.40;99.90;;;;;;5036446;28;20918;-89
2020/12/14 09:15:06;;;;;;;4.43;2.60;;;8.40;99.90;;;;;;5036109;28;20480;-88
2020/12/14 09:17:38;;;;;;;3.90;1.67;;;8.50;99.90;;;;;;5031242;28;20951;-87
2020/12/14 09:20:09;;;;;;;5.07;2.20;;;8.40;99.90;;;;;;5031847;28;20449;-87
2020/12/14 09:22:42;;;;;;;5.60;2.20;;;8.40;99.90;;;;;;5027266;28;20833;-89
2020/12/14 09:25:12;;;;;;;4.00;2.10;;;8.50;99.90;;;;;;5027782;28;20434;-89
2020/12/14 09:27:50;;;;;;;4.20;2.03;;;8.60;99.90;;;;;;5024957;28;20532;-89
2020/12/14 09:30:23;;;;;;;6.60;2.43;;;8.70;99.90;;;;;;5042536;28;20497;-87
2020/12/14 09:32:49;;;;;;;5.20;2.20;;;8.80;99.90;;;;;;5033309;28;20442;-89
2020/12/14 09:35:16;;;;;;;3.73;2.20;;;8.90;99.90;;;;;;5023680;28;21157;-88
2020/12/14 09:37:43;;;;;;;3.77;2.17;;;9.00;99.90;;;;;;5025726;28;20448;-88
2020/12/14 09:40:13;;;;;;;8.77;2.13;;;9.10;99.90;;;;;;5026229;28;20858;-88
2020/12/14 09:42:40;;;;;;;4.20;2.57;;;9.10;99.90;;;;;;5016783;28;20452;-88
2020/12/14 09:45:08;;;;;;;4.03;1.80;;;9.30;99.90;;;;;;5025217;28;20461;-87
2020/12/14 09:47:35;;;;;;;6.70;1.90;;;9.40;99.90;;;;;;5019844;28;20540;-92
2020/12/14 09:50:13;;;;;;;7.63;2.10;;;9.40;99.90;;;;;;5034697;28;20517;-87
2020/12/14 09:52:44;;;;;;;2.93;1.73;;;9.50;99.90;;;;;;5029175;28;20471;-87
2020/12/14 09:55:12;;;;;;;3.73;2.20;;;9.60;99.90;;;;;;5023560;28;20474;-86
2020/12/14 09:57:39;;;;;;;3.37;2.00;;;9.70;99.90;;;;;;5037171;28;20556;-84
2020/12/14 10:00:05;;;;;;;3.03;1.80;;;9.70;99.90;;;;;;5035602;28;20845;-87
2020/12/14 10:02:32;;;;;;;3.67;1.60;;;9.80;99.90;;;;;;5036897;28;20445;-86
2020/12/14 10:05:06;;;;;;;3.70;1.60;;;9.60;99.90;;;;;;5040099;28;20508;-87
2020/12/14 10:07:36;;;;;;;3.83;1.77;;;9.70;99.90;;;;;;5038985;28;20448;-87
2020/12/14 10:10:03;;;;;;;4.23;2.07;;;9.60;99.90;;;;;;5038670;28;20461;-87
2020/12/14 10:12:32;;;;;;;6.03;2.10;;;9.50;99.90;;;;;;5037525;28;20437;-87
2020/12/14 10:14:58;;;;;;;6.07;2.40;;;9.50;99.90;;;;;;5036638;28;20833;-87
2020/12/14 10:17:27;;;;;;;3.30;2.00;;;9.60;99.90;;;;;;5036831;28;20838;-85
2020/12/14 10:19:54;;;;;;;4.50;2.10;;;9.60;99.90;;;;;;5037397;28;20455;-85
2020/12/14 10:22:21;;;;;;;4.33;2.10;;;9.50;99.90;;;;;;5037813;28;20471;-87
2020/12/14 10:24:47;;;;;;;3.40;2.30;;;9.40;99.90;;;;;;5034456;28;20591;-86
2020/12/14 10:27:32;;;;;;;3.97;2.30;;;9.40;99.90;;;;;;5037292;28;20445;-87
2020/12/14 10:29:59;;;;;;;4.33;2.00;;;9.20;99.90;;;;;;5037770;28;20448;-87
2020/12/14 10:32:28;;;;;;;4.30;2.40;;;9.20;99.90;;;;;;5037031;28;20645;-87
2020/12/14 10:34:54;;;;;;;2.97;1.90;;;9.20;99.90;;;;;;5036314;28;20524;-86
2020/12/14 10:37:22;;;;;;;4.23;2.10;;;9.20;99.90;;;;;;5047798;28;20445;-85
2020/12/14 10:39:49;;;;;;;2.70;2.20;;;9.30;99.90;;;;;;5036122;28;20499;-86
2020/12/14 10:42:16;;;;;;;6.10;2.43;;;9.50;99.90;;;;;;5036780;28;20459;-85
2020/12/14 10:44:43;;;;;;;7.20;1.83;;;9.50;99.90;;;;;;5035292;28;20512;-85
2020/12/14 10:47:09;;;;;;;4.80;2.37;;;9.50;99.90;;;;;;5035376;28;20473;-85
2020/12/14 10:49:36;;;;;;;3.07;2.23;;;9.50;99.90;;;;;;5035801;28;20536;-87
2020/12/14 10:52:03;;;;;;;5.63;2.77;;;9.50;99.90;;;;;;5037122;28;20929;-86
2020/12/14 10:54:29;;;;;;;5.23;2.20;;;9.40;99.90;;;;;;5036322;28;20963;-87
2020/12/14 10:56:57;;;;;;;4.43;1.97;;;9.40;99.90;;;;;;5034807;28;20841;-87
2020/12/14 10:59:23;;;;;;;6.50;4.50;;;9.40;99.90;;;;;;5042730;28;20450;-85
2020/12/14 11:01:51;;;;;;;5.30;2.97;;;9.30;99.90;;;;;;5036954;28;20514;-84
2020/12/14 11:04:19;;;;;;;3.90;2.77;;;9.20;99.90;;;;;;5023923;28;20481;-85
2020/12/14 11:06:46;;;;;;;5.73;2.43;;;9.20;99.90;;;;;;5034576;28;20975;-85
2020/12/14 11:09:12;;;;;;;5.03;3.43;;;9.20;99.90;;;;;;5035885;28;20842;-88
2020/12/14 11:11:43;;;;;;;4.07;2.70;;;9.30;99.90;;;;;;5044096;28;20449;-92
2020/12/14 11:14:09;;;;;;;4.63;2.20;;;9.40;99.90;;;;;;5022868;28;20450;-89
2020/12/14 11:16:39;;;;;;;4.13;2.20;;;9.50;99.90;;;;;;5024302;28;20513;-89
2020/12/14 11:19:06;;;;;;;4.87;2.50;;;9.40;99.90;;;;;;5032971;28;20457;-88
2020/12/14 11:21:34;;;;;;;5.90;3.33;;;9.60;99.90;;;;;;5030673;28;20492;-88
2020/12/14 11:24:00;;;;;;;3.90;2.03;;;9.70;99.90;;;;;;5018731;28;20445;-88
2020/12/14 11:26:27;;;;;;;4.67;2.60;;;9.80;99.90;;;;;;5032760;28;20481;-89
2020/12/14 11:28:56;;;;;;;7.43;3.10;;;9.80;99.90;;;;;;5025079;28;20504;-90
2020/12/14 11:31:23;;;;;;;5.73;3.00;;;9.80;99.90;;;;;;5017647;28;20461;-88
2020/12/14 11:33:50;;;;;;;4.00;2.10;;;10.00;99.90;;;;;;5028859;28;20457;-87
2020/12/14 11:36:23;;;;;;;4.00;2.40;;;10.20;99.90;;;;;;5033999;28;20576;-87
2020/12/14 11:38:50;;;;;;;3.60;2.17;;;10.20;99.90;;;;;;5034004;28;20496;-88
2020/12/14 11:41:16;;;;;;;3.70;2.37;;;10.10;99.90;;;;;;5035066;28;20819;-87
2020/12/14 11:43:43;;;;;;;4.23;2.07;;;10.20;99.90;;;;;;5015815;28;20497;-89
2020/12/14 11:46:11;;;;;;;5.73;2.90;;;10.40;99.90;;;;;;5016628;28;20454;-88
2020/12/14 11:48:38;;;;;;;15.37;7.73;;;10.60;99.90;;;;;;5015630;28;20458;-88
2020/12/14 11:51:05;;;;;;;5.23;2.20;;;10.50;99.90;;;;;;5027666;28;20507;-88
2020/12/14 11:53:32;;;;;;;4.73;2.30;;;10.70;99.90;;;;;;5034588;28;20863;-88
2020/12/14 11:55:59;;;;;;;4.80;2.37;;;10.70;99.90;;;;;;5034284;28;20531;-88
2020/12/14 11:58:25;;;;;;;6.87;3.07;;;10.60;99.90;;;;;;5033052;28;20457;-88
2020/12/14 12:00:54;;;;;;;4.63;2.47;;;10.60;99.90;;;;;;5023078;28;20449;-86
2020/12/14 12:03:21;;;;;;;3.03;2.10;;;10.80;99.90;;;;;;5026122;28;20524;-88
2020/12/14 12:05:47;;;;;;;3.50;2.10;;;11.20;99.90;;;;;;5020770;28;20442;-88
2020/12/14 12:08:14;;;;;;;2.97;1.77;;;11.20;99.90;;;;;;5015184;28;20453;-86
2020/12/14 12:10:43;;;;;;;4.63;2.73;;;11.10;99.90;;;;;;5033708;28;20453;-87
2020/12/14 12:13:10;;;;;;;4.20;2.37;;;10.90;99.90;;;;;;5036508;28;20484;-89
2020/12/14 12:15:36;;;;;;;3.93;2.03;;;10.80;99.90;;;;;;5035435;28;20508;-86
2020/12/14 12:18:03;;;;;;;4.63;2.53;;;10.80;99.90;;;;;;5034950;28;20568;-86
2020/12/14 12:20:32;;;;;;;4.30;2.37;;;10.70;99.90;;;;;;5035226;28;20572;-86
2020/12/14 12:22:58;;;;;;;3.60;2.23;;;10.60;99.90;;;;;;5034313;28;20488;-87
2020/12/14 12:25:25;;;;;;;3.30;2.13;;;10.50;99.90;;;;;;5031312;28;20453;-87
2020/12/14 12:27:53;;;;;;;3.30;2.03;;;10.50;99.90;;;;;;5033772;28;20821;-86
2020/12/14 12:30:19;;;;;;;3.37;2.20;;;10.50;99.90;;;;;;5034021;28;20449;-86
2020/12/14 12:32:48;;;;;;;4.50;2.20;;;10.70;99.90;;;;;;5031197;28;20445;-85
2020/12/14 12:35:14;;;;;;;3.10;2.03;;;10.90;99.90;;;;;;5025956;28;20484;-86
2020/12/14 12:37:41;;;;;;;5.43;2.80;;;10.80;99.90;;;;;;5033781;28;20492;-86
2020/12/14 12:40:09;;;;;;;3.77;2.20;;;11.00;99.90;;;;;;5036112;28;20488;-86
2020/12/14 12:42:37;;;;;;;6.03;4.27;;;11.20;99.90;;;;;;5023220;28;20510;-87
2020/12/14 12:45:05;;;;;;;7.90;2.50;;;11.30;99.90;;;;;;5029598;28;20461;-85
2020/12/14 12:47:31;;;;;;;5.27;2.10;;;11.20;99.90;;;;;;5020500;28;20481;-86
2020/12/14 12:49:58;;;;;;;4.60;2.10;;;11.10;99.90;;;;;;5030278;28;20536;-87
2020/12/14 12:52:24;;;;;;;3.67;1.90;;;10.90;99.90;;;;;;5036408;28;20457;-89
2020/12/14 12:54:51;;;;;;;3.30;1.93;;;10.80;99.90;;;;;;5037822;28;20561;-87
2020/12/14 12:57:17;;;;;;;5.37;2.03;;;10.70;99.90;;;;;;5037440;28;20508;-88
2020/12/14 12:59:47;;;;;;;5.10;2.63;;;10.70;99.90;;;;;;5035348;28;20456;-86
2020/12/14 13:02:14;;;;;;;4.07;2.27;;;10.60;99.90;;;;;;5033768;28;20519;-85
2020/12/14 13:04:52;;;;;;;3.60;1.83;;;10.50;99.90;;;;;;5028220;28;20481;-86